Terminal Aerodrome Forecast
Issued by NWS

Home | Current Version | Previous Version | Text Only | Print | Product List | Glossary On
Versions: 1 2 3 4 5 6 7 8 9 10 11 12 13 14 15 16 17 18 19 20 21 22 23 24
000
FTUS43 KMQT 311138
TAFSAW
TAF
KSAW 311138Z 3112/0112 21005KT P6SM BKN019
     FM311700 30009KT P6SM OVC016
     FM311800 34010G16KT P6SM -SHSN OVC012
     FM010100 35012G18KT 5SM -SHSN OVC010
     FM010600 02008KT 3SM -SHSN OVC008
      AMD LTD TO CLD VIS AND WIND 0103/0111=

USA.gov is the U.S. government's official web portal to all federal, state and local government web resources and services.